EJU65AM EHAM-EBCI
Flight info
| Callsign | EJU65AM |
|---|---|
| Flight time | 0h 30m |
| Altitude | 17000 |
| Route | WOODY N872 NIK |
| Aircraft | A320/M-SDE3FGHIRWY/LB1 |
Departure
| Time | 2026-05-04 13:28 |
|---|---|
| Airport | Amsterdam Airport Schiphol (EHAM) |
Arrival
| Time | 2026-05-04 13:58 |
|---|---|
| Airport | Brussels South Charleroi Airport (EBCI) |
| Time | Latitude | Longitude | Altitude | Speed | Heading |
|---|---|---|---|---|---|
| 2026-05-04 13:01 | 52.31004 | 4.75411 | 0 ft | 0 kts | 148° |
| 2026-05-04 13:06 | 52.31004 | 4.75410 | 0 ft | 0 kts | 148° |
| 2026-05-04 13:13 | 52.31005 | 4.75410 | -1 ft | 0 kts | 147° |
| 2026-05-04 13:18 | 52.31015 | 4.75399 | -1 ft | 4 kts | 152° |
| 2026-05-04 13:18 | 52.31038 | 4.75380 | -1 ft | 4 kts | 128° |
| 2026-05-04 13:18 | 52.31041 | 4.75355 | -1 ft | 4 kts | 69° |
| 2026-05-04 13:19 | 52.31037 | 4.75341 | -1 ft | 0 kts | 70° |
| 2026-05-04 13:21 | 52.31039 | 4.75346 | -1 ft | 4 kts | 64° |
| 2026-05-04 13:21 | 52.31088 | 4.75454 | -1 ft | 14 kts | 44° |
| 2026-05-04 13:22 | 52.31187 | 4.75462 | -1 ft | 17 kts | 356° |
| 2026-05-04 13:22 | 52.31326 | 4.75451 | -1 ft | 21 kts | 357° |
| 2026-05-04 13:22 | 52.31428 | 4.75522 | -1 ft | 18 kts | 80° |
| 2026-05-04 13:22 | 52.31436 | 4.75719 | -1 ft | 17 kts | 86° |
| 2026-05-04 13:23 | 52.31443 | 4.75897 | -1 ft | 15 kts | 86° |
| 2026-05-04 13:23 | 52.31448 | 4.76056 | -1 ft | 13 kts | 86° |
| 2026-05-04 13:23 | 52.31456 | 4.76259 | -1 ft | 22 kts | 86° |
| 2026-05-04 13:23 | 52.31466 | 4.76534 | -1 ft | 26 kts | 86° |
| 2026-05-04 13:24 | 52.31475 | 4.76784 | -1 ft | 20 kts | 87° |
| 2026-05-04 13:24 | 52.31482 | 4.77012 | -1 ft | 20 kts | 87° |
| 2026-05-04 13:24 | 52.31448 | 4.77216 | -1 ft | 18 kts | 129° |
| 2026-05-04 13:25 | 52.31296 | 4.77482 | -1 ft | 14 kts | 149° |
| 2026-05-04 13:25 | 52.31166 | 4.77498 | -1 ft | 24 kts | 183° |
| 2026-05-04 13:25 | 52.30995 | 4.77484 | -1 ft | 25 kts | 183° |
| 2026-05-04 13:25 | 52.30857 | 4.77469 | -1 ft | 15 kts | 184° |
| 2026-05-04 13:26 | 52.30762 | 4.77461 | -1 ft | 13 kts | 183° |
| 2026-05-04 13:26 | 52.30654 | 4.77470 | -1 ft | 19 kts | 160° |
| 2026-05-04 13:26 | 52.30534 | 4.77573 | -1 ft | 19 kts | 152° |
| 2026-05-04 13:26 | 52.30433 | 4.77640 | -1 ft | 13 kts | 184° |
| 2026-05-04 13:27 | 52.30394 | 4.77585 | -2 ft | 0 kts | 238° |
| 2026-05-04 13:27 | 52.30393 | 4.77584 | -2 ft | 0 kts | 238° |
| 2026-05-04 13:27 | 52.30376 | 4.77537 | -2 ft | 25 kts | 238° |
| 2026-05-04 13:27 | 52.30142 | 4.76928 | -3 ft | 97 kts | 238° |
| 2026-05-04 13:28 | 52.29758 | 4.75930 | -2 ft | 144 kts | 238° |
| 2026-05-04 13:28 | 52.29152 | 4.74357 | 199 ft | 172 kts | 241° |
| 2026-05-04 13:28 | 52.28512 | 4.72695 | 870 ft | 174 kts | 240° |
| 2026-05-04 13:28 | 52.27847 | 4.70966 | 1394 ft | 189 kts | 239° |
| 2026-05-04 13:29 | 52.27092 | 4.69084 | 1740 ft | 213 kts | 231° |
| 2026-05-04 13:29 | 52.25893 | 4.67595 | 2373 ft | 223 kts | 202° |
| 2026-05-04 13:29 | 52.24350 | 4.67218 | 3143 ft | 230 kts | 174° |
| 2026-05-04 13:29 | 52.22838 | 4.68085 | 3927 ft | 235 kts | 146° |
| 2026-05-04 13:30 | 52.21681 | 4.69974 | 4759 ft | 238 kts | 131° |
| 2026-05-04 13:30 | 52.20499 | 4.71878 | 5555 ft | 240 kts | 144° |
| 2026-05-04 13:30 | 52.19068 | 4.73276 | 6378 ft | 241 kts | 155° |
| 2026-05-04 13:30 | 52.17549 | 4.74446 | 7169 ft | 242 kts | 160° |
| 2026-05-04 13:31 | 52.15916 | 4.75212 | 7692 ft | 258 kts | 167° |
| 2026-05-04 13:31 | 52.14106 | 4.75914 | 8174 ft | 275 kts | 168° |
| 2026-05-04 13:31 | 52.12223 | 4.76631 | 8948 ft | 280 kts | 168° |
| 2026-05-04 13:31 | 52.10312 | 4.77358 | 9778 ft | 284 kts | 168° |
| 2026-05-04 13:32 | 52.08357 | 4.78104 | 10310 ft | 299 kts | 167° |
| 2026-05-04 13:32 | 52.06252 | 4.78909 | 10545 ft | 322 kts | 167° |
| 2026-05-04 13:32 | 52.04015 | 4.79772 | 10966 ft | 336 kts | 168° |
| 2026-05-04 13:32 | 52.01718 | 4.80623 | 11637 ft | 341 kts | 172° |
| 2026-05-04 13:33 | 51.99377 | 4.80844 | 12303 ft | 344 kts | 185° |
| 2026-05-04 13:33 | 51.97016 | 4.80156 | 13016 ft | 346 kts | 199° |
| 2026-05-04 13:33 | 51.94797 | 4.78630 | 13734 ft | 348 kts | 207° |
| 2026-05-04 13:33 | 51.92605 | 4.76900 | 14360 ft | 352 kts | 207° |
| 2026-05-04 13:34 | 51.90392 | 4.75158 | 14985 ft | 356 kts | 206° |
| 2026-05-04 13:34 | 51.88153 | 4.73401 | 15602 ft | 359 kts | 206° |
| 2026-05-04 13:34 | 51.85893 | 4.71632 | 16241 ft | 362 kts | 206° |
| 2026-05-04 13:34 | 51.83616 | 4.69852 | 16796 ft | 365 kts | 206° |
| 2026-05-04 13:35 | 51.81355 | 4.68090 | 16960 ft | 366 kts | 206° |
| 2026-05-04 13:35 | 51.76670 | 4.64454 | 16993 ft | 376 kts | 206° |
| 2026-05-04 13:35 | 51.74308 | 4.62625 | 16992 ft | 376 kts | 206° |
| 2026-05-04 13:36 | 51.71949 | 4.60798 | 16993 ft | 377 kts | 206° |
| 2026-05-04 13:36 | 51.69582 | 4.58965 | 16991 ft | 378 kts | 206° |
| 2026-05-04 13:36 | 51.67212 | 4.57130 | 16992 ft | 378 kts | 206° |
| 2026-05-04 13:36 | 51.64846 | 4.55299 | 16993 ft | 377 kts | 206° |
| 2026-05-04 13:37 | 51.62478 | 4.53471 | 16993 ft | 377 kts | 206° |
| 2026-05-04 13:37 | 51.60107 | 4.51645 | 16998 ft | 378 kts | 206° |
| 2026-05-04 13:37 | 51.57769 | 4.49845 | 17003 ft | 378 kts | 206° |
| 2026-05-04 13:37 | 51.55391 | 4.48018 | 17009 ft | 378 kts | 206° |
| 2026-05-04 13:38 | 51.53017 | 4.46189 | 17013 ft | 378 kts | 206° |
| 2026-05-04 13:38 | 51.50645 | 4.44359 | 17013 ft | 378 kts | 206° |
| 2026-05-04 13:38 | 51.48269 | 4.42532 | 17012 ft | 378 kts | 206° |
| 2026-05-04 13:38 | 51.45892 | 4.40710 | 17007 ft | 379 kts | 206° |
| 2026-05-04 13:39 | 51.43507 | 4.38889 | 17005 ft | 380 kts | 205° |
| 2026-05-04 13:39 | 51.41121 | 4.37072 | 17000 ft | 380 kts | 206° |
| 2026-05-04 13:39 | 51.38764 | 4.35278 | 17002 ft | 380 kts | 205° |
| 2026-05-04 13:39 | 51.36375 | 4.33465 | 17000 ft | 380 kts | 205° |
| 2026-05-04 13:40 | 51.33988 | 4.31651 | 17003 ft | 380 kts | 206° |
| 2026-05-04 13:40 | 51.31604 | 4.29840 | 16995 ft | 380 kts | 206° |
| 2026-05-04 13:40 | 51.29216 | 4.28027 | 16999 ft | 380 kts | 206° |
| 2026-05-04 13:40 | 51.26826 | 4.26212 | 17000 ft | 381 kts | 205° |
| 2026-05-04 13:41 | 51.24430 | 4.24391 | 16998 ft | 381 kts | 205° |
| 2026-05-04 13:41 | 51.22036 | 4.22575 | 17000 ft | 381 kts | 205° |
| 2026-05-04 13:41 | 51.19642 | 4.20759 | 16993 ft | 381 kts | 205° |
| 2026-05-04 13:42 | 51.14893 | 4.17150 | 16988 ft | 381 kts | 206° |
| 2026-05-04 13:42 | 51.12520 | 4.15269 | 16986 ft | 381 kts | 207° |
| 2026-05-04 13:42 | 51.10159 | 4.13355 | 16987 ft | 381 kts | 207° |
| 2026-05-04 13:42 | 51.07803 | 4.11425 | 16983 ft | 381 kts | 207° |
| 2026-05-04 13:43 | 51.05444 | 4.09498 | 16982 ft | 381 kts | 207° |
| 2026-05-04 13:43 | 51.03078 | 4.07582 | 16984 ft | 381 kts | 207° |
| 2026-05-04 13:43 | 51.00711 | 4.05678 | 16984 ft | 381 kts | 207° |
| 2026-05-04 13:43 | 50.98335 | 4.03802 | 16982 ft | 381 kts | 204° |
| 2026-05-04 13:44 | 50.95803 | 4.02579 | 16984 ft | 381 kts | 189° |
| 2026-05-04 13:44 | 50.93196 | 4.02399 | 16984 ft | 382 kts | 175° |
| 2026-05-04 13:44 | 50.90603 | 4.03262 | 16984 ft | 382 kts | 161° |
| 2026-05-04 13:44 | 50.88226 | 4.05115 | 16975 ft | 381 kts | 147° |
| 2026-05-04 13:45 | 50.86153 | 4.07641 | 16724 ft | 371 kts | 141° |
| 2026-05-04 13:45 | 50.84174 | 4.10188 | 16465 ft | 362 kts | 141° |
| 2026-05-04 13:45 | 50.82237 | 4.12688 | 16210 ft | 357 kts | 141° |
| 2026-05-04 13:45 | 50.80317 | 4.15161 | 15952 ft | 355 kts | 141° |
| 2026-05-04 13:46 | 50.78408 | 4.17608 | 15704 ft | 352 kts | 141° |
| 2026-05-04 13:46 | 50.76536 | 4.19999 | 15458 ft | 350 kts | 141° |
| 2026-05-04 13:46 | 50.74642 | 4.22411 | 15209 ft | 349 kts | 141° |
| 2026-05-04 13:46 | 50.72757 | 4.24808 | 14961 ft | 348 kts | 141° |
| 2026-05-04 13:47 | 50.70876 | 4.27198 | 14721 ft | 346 kts | 142° |
| 2026-05-04 13:47 | 50.68883 | 4.29299 | 14474 ft | 343 kts | 152° |
| 2026-05-04 13:47 | 50.66716 | 4.30800 | 14111 ft | 339 kts | 159° |
| 2026-05-04 13:47 | 50.64525 | 4.32171 | 13652 ft | 338 kts | 159° |
| 2026-05-04 13:48 | 50.62373 | 4.33514 | 13184 ft | 336 kts | 159° |
| 2026-05-04 13:48 | 50.60206 | 4.34868 | 12740 ft | 334 kts | 159° |
| 2026-05-04 13:48 | 50.58052 | 4.36215 | 12298 ft | 332 kts | 158° |
| 2026-05-04 13:48 | 50.55913 | 4.37553 | 11830 ft | 330 kts | 158° |
| 2026-05-04 13:49 | 50.53786 | 4.38883 | 11381 ft | 328 kts | 158° |
| 2026-05-04 13:49 | 50.51689 | 4.40196 | 11165 ft | 319 kts | 158° |
| 2026-05-04 13:49 | 50.49665 | 4.41460 | 11035 ft | 307 kts | 158° |
| 2026-05-04 13:49 | 50.47790 | 4.42932 | 10876 ft | 297 kts | 144° |
| 2026-05-04 13:50 | 50.46326 | 4.45149 | 10743 ft | 292 kts | 126° |
| 2026-05-04 13:50 | 50.45339 | 4.47943 | 10361 ft | 296 kts | 109° |
| 2026-05-04 13:50 | 50.44950 | 4.51054 | 9998 ft | 294 kts | 95° |
| 2026-05-04 13:50 | 50.44756 | 4.54264 | 9569 ft | 294 kts | 95° |
| 2026-05-04 13:51 | 50.44558 | 4.57432 | 9211 ft | 291 kts | 95° |
| 2026-05-04 13:51 | 50.44358 | 4.60584 | 8807 ft | 289 kts | 96° |
| 2026-05-04 13:51 | 50.44158 | 4.63711 | 8402 ft | 288 kts | 96° |
| 2026-05-04 13:51 | 50.43970 | 4.66824 | 7996 ft | 286 kts | 92° |
| 2026-05-04 13:52 | 50.44810 | 4.72817 | 7295 ft | 283 kts | 65° |
| 2026-05-04 13:52 | 50.45624 | 4.75593 | 7107 ft | 276 kts | 65° |
| 2026-05-04 13:52 | 50.46621 | 4.78032 | 6983 ft | 266 kts | 43° |
| 2026-05-04 13:53 | 50.48232 | 4.79425 | 6410 ft | 269 kts | 9° |
| 2026-05-04 13:53 | 50.50063 | 4.79189 | 5758 ft | 265 kts | 338° |
| 2026-05-04 13:53 | 50.51743 | 4.78015 | 5128 ft | 263 kts | 334° |
| 2026-05-04 13:54 | 50.54100 | 4.74265 | 4245 ft | 238 kts | 274° |
| 2026-05-04 13:54 | 50.53790 | 4.71826 | 4009 ft | 227 kts | 241° |
| 2026-05-04 13:54 | 50.52405 | 4.67514 | 3436 ft | 213 kts | 244° |
| 2026-05-04 13:55 | 50.51814 | 4.65466 | 3168 ft | 201 kts | 244° |
| 2026-05-04 13:55 | 50.50773 | 4.61847 | 2674 ft | 165 kts | 246° |
| 2026-05-04 13:55 | 50.50312 | 4.60250 | 2472 ft | 153 kts | 246° |
| 2026-05-04 13:56 | 50.49885 | 4.58768 | 2264 ft | 146 kts | 245° |
| 2026-05-04 13:56 | 50.49470 | 4.57333 | 2052 ft | 143 kts | 245° |
| 2026-05-04 13:56 | 50.48634 | 4.54429 | 1680 ft | 144 kts | 245° |
| 2026-05-04 13:57 | 50.48228 | 4.53018 | 1443 ft | 140 kts | 245° |
| 2026-05-04 13:57 | 50.47830 | 4.51639 | 1247 ft | 137 kts | 245° |
| 2026-05-04 13:58 | 50.46606 | 4.47416 | 689 ft | 147 kts | 243° |
| 2026-05-04 13:58 | 50.45905 | 4.45023 | 593 ft | 72 kts | 245° |
| 2026-05-04 13:58 | 50.45753 | 4.44491 | 599 ft | 36 kts | 245° |
| 2026-05-04 13:59 | 50.45687 | 4.44261 | 595 ft | 19 kts | 245° |
| 2026-05-04 13:59 | 50.45631 | 4.44064 | 594 ft | 19 kts | 253° |
| 2026-05-04 13:59 | 50.45746 | 4.44097 | 595 ft | 10 kts | 55° |
| 2026-05-04 14:00 | 50.45781 | 4.44170 | 597 ft | 6 kts | 51° |
| 2026-05-04 14:00 | 50.45878 | 4.44368 | 599 ft | 16 kts | 52° |
| 2026-05-04 14:00 | 50.45940 | 4.44513 | 600 ft | 17 kts | 63° |
| 2026-05-04 14:01 | 50.45993 | 4.44693 | 597 ft | 20 kts | 66° |
| 2026-05-04 14:01 | 50.46054 | 4.44904 | 597 ft | 22 kts | 66° |
| 2026-05-04 14:01 | 50.46187 | 4.45361 | 599 ft | 24 kts | 66° |
| 2026-05-04 14:02 | 50.46258 | 4.45606 | 599 ft | 25 kts | 65° |
| 2026-05-04 14:02 | 50.46335 | 4.45869 | 598 ft | 27 kts | 65° |
| 2026-05-04 14:02 | 50.46417 | 4.46154 | 591 ft | 30 kts | 65° |
| 2026-05-04 14:02 | 50.46505 | 4.46453 | 589 ft | 24 kts | 66° |
| 2026-05-04 14:03 | 50.46582 | 4.46554 | 591 ft | 11 kts | 341° |
| 2026-05-04 14:03 | 50.46648 | 4.46557 | 589 ft | 11 kts | 45° |
| 2026-05-04 14:03 | 50.46680 | 4.46658 | 588 ft | 10 kts | 66° |
| 2026-05-04 14:03 | 50.46710 | 4.46759 | 588 ft | 10 kts | 65° |
| 2026-05-04 14:04 | 50.46728 | 4.46818 | 587 ft | 0 kts | 65° |
| 2026-05-04 14:05 | 50.46736 | 4.46839 | 587 ft | 4 kts | 50° |
| 2026-05-04 14:05 | 50.46770 | 4.46835 | 586 ft | 5 kts | 337° |
| 2026-05-04 14:05 | 50.46790 | 4.46820 | 585 ft | 3 kts | 334° |
| 2026-05-04 14:06 | 50.46798 | 4.46814 | 585 ft | 0 kts | 335° |